WetterOnline ( https://www.wetteronline.de )

Wetter aktuell Schweinfurt

Aktuelles Wetter: Bad Kissingen (266m)

6-stündlich | Neueste Meldungen
Ortszeit Temperatur Wetter
Mi, 01.02. 19:00 4.9° C bedeckt
Mi, 01.02. 13:00 4.8° C Regen
Mi, 01.02. 7:00 4.4° C leichter Regen
Mi, 01.02. 1:00 4.2° C leichter Regen
Di, 31.01. 19:00 3.3° C leichter Regen
Di, 31.01. 13:00 2.8° C bewölkt
Di, 31.01. 7:00 2.2° C bewölkt
Di, 31.01. 1:00 3.3° C bedeckt
Ortszeit Temperatur Wetter
Mi, 01.02. 22:00 5.6° C leichter Regen
Mi, 01.02. 21:50 5.6° C leichter Regen
Mi, 01.02. 21:40 5.6° C bedeckt
Mi, 01.02. 21:30 5.7° C bewölkt
Mi, 01.02. 21:20 5.7° C bewölkt
Mi, 01.02. 21:10 5.5° C bedeckt
Mi, 01.02. 21:00 5.6° C Regen
Mi, 01.02. 20:30 5.4° C leichter Regen
Mi, 01.02. 20:00 5.6° C leichter Regen
Mi, 01.02. 19:30 5.6° C bewölkt
Mi, 01.02. 19:00 4.9° C bedeckt
Ortszeit Relative Feuchte Sichtweite
Mi, 01.02. 19:00 79% 40 km
Mi, 01.02. 13:00 79% 40 km
Mi, 01.02. 7:00 80% 30 km
Mi, 01.02. 1:00 92% 35 km
Di, 31.01. 19:00 95% 7 km
Di, 31.01. 13:00 80% 30 km
Di, 31.01. 7:00 88% 30 km
Di, 31.01. 1:00 79% 30 km
Ortszeit Relative Feuchte Sichtweite
Mi, 01.02. 22:00 78% 17 km
Mi, 01.02. 21:50 78% -
Mi, 01.02. 21:40 76% -
Mi, 01.02. 21:30 75% 55 km
Mi, 01.02. 21:20 75% -
Mi, 01.02. 21:10 76% -
Mi, 01.02. 21:00 76% 50 km
Mi, 01.02. 20:30 79% 8 km
Mi, 01.02. 20:00 75% 20 km
Mi, 01.02. 19:30 75% 45 km
Mi, 01.02. 19:00 79% 40 km
Ortszeit Niederschlagsmenge Niederschlagsart
Mi, 01.02. 19:00 0.2 l/m2 in 12 Std. Regen
Mi, 01.02. 13:00 0.1 l/m2 in 6 Std. Regen
Mi, 01.02. 7:00 1 l/m2 in 12 Std. Regen
Mi, 01.02. 1:00 0.9 l/m2 in 6 Std. Regen
Di, 31.01. 19:00 0.1 l/m2 in 12 Std. Regen
Di, 31.01. 13:00 0.0 l/m2 in 6 Std. -
Di, 31.01. 7:00 0.1 l/m2 in 12 Std. Regen
Di, 31.01. 1:00 0.1 l/m2 in 6 Std. Regen
Ortszeit Niederschlagsmenge Niederschlagsart
Mi, 01.02. 22:00 <0.05 l/m2 in 1 Std. Regen
Mi, 01.02. 21:50 keine Meldung -
Mi, 01.02. 21:40 keine Meldung -
Mi, 01.02. 21:30 <0.05 l/m2 in 30 Min Schneeregen
Mi, 01.02. 21:20 keine Meldung -
Mi, 01.02. 21:10 keine Meldung -
Mi, 01.02. 21:00 0.1 l/m2 in 1 Std. Regen
Mi, 01.02. 20:30 0.1 l/m2 in 30 Min -
Mi, 01.02. 20:00 <0.05 l/m2 in 1 Std. Regen
Mi, 01.02. 19:30 <0.05 l/m2 in 30 Min Schneeregen
Mi, 01.02. 19:00 0.1 l/m2 in 1 Std. Regen
Ortszeit Stärke Spitze Richtung
km/h Bft. km/h Grad Sektor
Mi, 01.02. 19:00 18 3 54 260° W
Mi, 01.02. 13:00 30 5 50 260° W
Mi, 01.02. 7:00 24 4 37 260° W
Mi, 01.02. 1:00 14 3 32 190° S
Di, 31.01. 19:00 18 3 43 190° S
Di, 31.01. 13:00 28 4 48 240° SW
Di, 31.01. 7:00 14 3 40 230° SW
Di, 31.01. 1:00 22 4 61 280° W
Ortszeit Stärke Spitze Richtung
km/h Bft. km/h Grad Sektor
Mi, 01.02. 22:00 33 5 57 270° W
Mi, 01.02. 21:50 33 5 - 270° W
Mi, 01.02. 21:40 30 5 - 270° W
Mi, 01.02. 21:30 35 5 57 280° W
Mi, 01.02. 21:20 35 5 - 280° W
Mi, 01.02. 21:10 33 5 - 280° W
Mi, 01.02. 21:00 33 5 54 270° W
Mi, 01.02. 20:30 24 4 43 260° W
Mi, 01.02. 20:00 22 4 54 250° W
Mi, 01.02. 19:30 36 5 54 270° W
Mi, 01.02. 19:00 18 3 43 260° W
Ortszeit Untergrenze Bedeckung Gattung
total tief tief mittel hoch
Mi, 01.02. 19:00 780 m 8/8 8/8 - - -
Mi, 01.02. 13:00 720 m 8/8 8/8 - - -
Mi, 01.02. 7:00 1080 m 8/8 8/8 - - -
Mi, 01.02. 1:00 270 m 8/8 8/8 - - -
Di, 31.01. 19:00 210 m 8/8 8/8 - - -
Di, 31.01. 13:00 510 m 7/8 7/8 - - -
Di, 31.01. 7:00 480 m 7/8 7/8 - - -
Di, 31.01. 1:00 750 m 8/8 8/8 - - -
Ortszeit Bedeckungsgrad in Achtel und Wolkenuntergrenze
Mi, 01.02. 22:00 7(690m) 7(1080m)
Mi, 01.02. 21:50 7(690m) 7(1080m)
Mi, 01.02. 21:40 8
Mi, 01.02. 21:30 5(780m) 7(960m)
Mi, 01.02. 21:20 5(780m) 7(960m)
Mi, 01.02. 21:10 8
Mi, 01.02. 21:00 4(720m) 7(870m) 7(990m)
Mi, 01.02. 20:30 6(750m) 7(960m) 7(1170m)
Mi, 01.02. 20:00 7(780m) 8(1110m)
Mi, 01.02. 19:30 7(810m) 7(990m)
Mi, 01.02. 19:00 6(780m) 8(960m)
Ortszeit Luftdruck NN (hPa) Tendenz (hPa in 3 Std.)
Mi, 01.02. 19:00 1019 + 0,9
Mi, 01.02. 13:00 1019 - 0,3
Mi, 01.02. 7:00 1019 - 0,8
Mi, 01.02. 1:00 1021 - 0,4
Di, 31.01. 19:00 1022 0,0
Di, 31.01. 13:00 1024 - 1,9
Di, 31.01. 7:00 1025 + 0,3
Di, 31.01. 1:00 1024 + 1,8
Ortszeit Luftdruck NN (hPa) Tendenz (hPa in 3 Std.)
Mi, 01.02. 22:00 1018 - 0,3
Mi, 01.02. 21:50 1018 keine Meldung
Mi, 01.02. 21:40 1018 keine Meldung
Mi, 01.02. 21:30 1019 0,0
Mi, 01.02. 21:20 1019 keine Meldung
Mi, 01.02. 21:10 1018 keine Meldung
Mi, 01.02. 21:00 1018 - 0,2
Mi, 01.02. 20:30 1018 - 0,2
Mi, 01.02. 20:00 1018 + 0,3
Mi, 01.02. 19:30 1019 + 0,6
Mi, 01.02. 19:00 1019 + 0,9
Ortszeit Schneehöhe (cm)
Mi, 01.02. 19:00 0
Mi, 01.02. 13:00 0
Mi, 01.02. 7:00 0
Mi, 01.02. 1:00 0
Di, 31.01. 19:00 0
Di, 31.01. 13:00 0
Di, 31.01. 7:00 0
Di, 31.01. 1:00 0
Ortszeit Schneehöhe (cm)
Mi, 01.02. 22:00 0
Mi, 01.02. 21:50 0
Mi, 01.02. 21:40 0
Mi, 01.02. 21:30 0
Mi, 01.02. 21:20 0
Mi, 01.02. 21:10 0
Mi, 01.02. 21:00 0
Mi, 01.02. 20:30 0
Mi, 01.02. 20:00 0
Mi, 01.02. 19:30 0
Mi, 01.02. 19:00 0
Link zu dieser Seite / Seite empfehlen

Das Wetter in ...